Fort McCoy, Wisconsin
Current Conditions -  °F | °C
As of 1:15 AM on Saturday 25 Oct 2014 (Local Time) from KCMY Reporting Station
Haze Haze  
Wind Chill: 56°   Ceiling: 900
Heat Index: 56°   Visibility: 5mi
Dew Point: 55°   Wind: 0mph
Humidity: 94%   Direction: NA
Pressure: 29.89"   Gusts: NA
Location:  43.9936°N, 90.8051°W
Report Text: KCMY 250615Z AUTO 00000KT 5SM BR OVC009 14/13 A2989 RMK AO2 T01360127
Loading
Personal Weather Stations






























Interactive Weather Map
Tropical Storm Tracking
New forecast layout! Learn more

10-Day Weather Forecast

Advertisements
Track Severe Weather on mobile